Time;durP1;ratioP1;P1;durP2;ratioP2;P2;SDS_P1;SDS_P2;PMS_P1;PMS_P2;Temp;Humidity;BMP_temperature;BMP_pressure;BME280_temperature;BME280_humidity;BME280_pressure;Samples;Min_cycle;Max_cycle;Signal;HPM_P1;HPM_P2
2021/07/21 00:00:03;;;;;;;26.80;15.57;;;538.40;2227.20;;;;;;5133623;27;20038;-80
2021/07/21 00:02:29;;;;;;;21.50;13.38;;;538.30;2201.60;;;;;;5121091;27;20027;-80
2021/07/21 00:04:54;;;;;;;22.38;13.38;;;537.80;2278.40;;;;;;5135055;27;20019;-80
2021/07/21 00:07:20;;;;;;;23.40;14.05;;;537.90;2252.80;;;;;;5122283;27;20485;-78
2021/07/21 00:09:46;;;;;;;22.15;14.05;;;537.70;2304.00;;;;;;5131552;27;20015;-80
2021/07/21 00:14:56;;;;;;;21.98;14.45;;;537.80;2304.00;;;;;;5129946;27;20499;-78
2021/07/21 00:17:25;;;;;;;20.75;13.98;;;537.70;2329.60;;;;;;5126230;27;20517;-79
2021/07/21 00:20:09;;;;;;;18.23;13.40;;;512.90;2329.60;;;;;;5131268;27;20031;-78
2021/07/21 00:22:45;;;;;;;22.17;14.70;;;512.90;2329.60;;;;;;5120262;27;20031;-76
2021/07/21 00:25:15;;;;;;;22.33;13.80;;;512.90;2329.60;;;;;;5131074;27;20019;-81
2021/07/21 00:27:45;;;;;;;22.85;14.38;;;512.80;2355.20;;;;;;5128656;27;20019;-81
2021/07/21 00:30:14;;;;;;;27.35;14.93;;;512.90;2329.60;;;;;;5132033;27;20024;-81
2021/07/21 00:32:40;;;;;;;27.80;15.38;;;537.60;2329.60;;;;;;5127645;27;20153;-81
2021/07/21 00:35:08;;;;;;;28.08;15.40;;;537.60;2329.60;;;;;;5125543;27;20023;-83
2021/07/21 00:37:34;;;;;;;24.35;15.23;;;537.60;2304.00;;;;;;5128175;27;20042;-76
2021/07/21 00:40:00;;;;;;;25.75;14.32;;;537.70;2304.00;;;;;;5127161;27;20034;-81
2021/07/21 00:42:26;;;;;;;20.70;13.55;;;537.60;2304.00;;;;;;5129069;27;20034;-78
2021/07/21 00:44:53;;;;;;;19.25;13.55;;;537.80;2304.00;;;;;;5119565;27;20027;-80
2021/07/21 00:47:19;;;;;;;23.13;14.55;;;537.80;2304.00;;;;;;5128199;27;20023;-79
2021/07/21 00:49:45;;;;;;;22.85;14.15;;;537.80;2304.00;;;;;;5130602;27;20054;-80
2021/07/21 00:52:11;;;;;;;25.17;14.45;;;537.90;2304.00;;;;;;5133206;27;20472;-80
2021/07/21 00:54:37;;;;;;;21.70;14.88;;;537.90;2278.40;;;;;;5134201;27;20464;-79
2021/07/21 00:57:04;;;;;;;24.23;13.50;;;537.90;2278.40;;;;;;5134381;27;20030;-78
2021/07/21 00:59:34;;;;;;;25.10;14.93;;;537.90;2278.40;;;;;;5133037;27;20110;-81
2021/07/21 01:02:01;;;;;;;20.33;14.80;;;538.00;2278.40;;;;;;5134300;27;20118;-79
2021/07/21 01:04:29;;;;;;;28.88;15.00;;;537.90;2278.40;;;;;;5134293;27;20066;-79
2021/07/21 01:06:55;;;;;;;22.30;14.32;;;537.90;2278.40;;;;;;5134119;27;20051;-80
2021/07/21 01:09:22;;;;;;;24.80;14.63;;;538.40;2278.40;;;;;;5134455;27;20050;-81
2021/07/21 01:12:05;;;;;;;20.30;13.35;;;538.00;2278.40;;;;;;5117250;27;20021;-79
2021/07/21 01:14:52;;;;;;;22.20;15.02;;;537.80;2304.00;;;;;;5133758;27;20022;-78
2021/07/21 01:17:30;;;;;;;22.55;14.15;;;537.80;2278.40;;;;;;5133780;27;20059;-76
2021/07/21 01:20:23;;;;;;;24.00;14.02;;;537.80;2278.40;;;;;;5131125;27;20370;-77
2021/07/21 01:23:16;;;;;;;24.23;14.65;;;537.80;2278.40;;;;;;5122236;27;20027;-79
2021/07/21 01:26:07;;;;;;;23.90;13.63;;;537.60;2278.40;;;;;;5070599;28;20032;-79
2021/07/21 01:28:35;;;;;;;23.77;14.32;;;537.70;2278.40;;;;;;5068434;28;20016;-78
2021/07/21 01:31:04;;;;;;;29.42;14.27;;;537.70;2278.40;;;;;;5070617;28;20028;-80
2021/07/21 01:33:31;;;;;;;19.75;13.85;;;537.60;2278.40;;;;;;5058948;28;20033;-79
2021/07/21 01:35:59;;;;;;;25.45;13.50;;;537.70;2278.40;;;;;;5070436;28;20024;-78
2021/07/21 01:38:30;;;;;;;24.58;13.77;;;537.60;2278.40;;;;;;5070330;28;20051;-78
2021/07/21 01:41:06;;;;;;;26.35;14.70;;;537.70;2278.40;;;;;;5070253;28;20040;-79
2021/07/21 01:43:34;;;;;;;24.00;14.27;;;537.60;2278.40;;;;;;5070135;28;20120;-79
2021/07/21 01:46:02;;;;;;;25.77;14.30;;;537.60;2304.00;;;;;;5070139;28;20374;-78
2021/07/21 01:48:35;;;;;;;21.02;13.05;;;512.90;2278.40;;;;;;5064855;28;20017;-79
2021/07/21 01:51:02;;;;;;;23.13;13.43;;;512.90;2278.40;;;;;;5060117;28;20060;-78
2021/07/21 01:53:34;;;;;;;22.33;13.57;;;512.90;2278.40;;;;;;5056574;28;20521;-79
2021/07/21 01:56:03;;;;;;;24.67;15.52;;;512.90;2278.40;;;;;;5066862;28;20051;-79
2021/07/21 01:58:30;;;;;;;21.13;13.00;;;512.90;2278.40;;;;;;5056136;28;20025;-80
2021/07/21 02:00:56;;;;;;;23.08;13.23;;;512.90;2278.40;;;;;;5069914;28;20025;-79
2021/07/21 02:03:24;;;;;;;21.38;14.68;;;512.90;2278.40;;;;;;5112131;28;20027;-80
2021/07/21 02:05:56;;;;;;;22.02;15.18;;;512.80;2278.40;;;;;;5116011;27;20473;-79
2021/07/21 02:08:22;;;;;;;25.70;15.90;;;512.80;2278.40;;;;;;5133055;28;20023;-77
2021/07/21 02:10:48;;;;;;;31.33;14.98;;;512.80;2278.40;;;;;;5124844;27;20051;-79
2021/07/21 02:13:17;;;;;;;22.15;14.88;;;512.80;2278.40;;;;;;5125240;28;20023;-81
2021/07/21 02:15:44;;;;;;;26.70;15.50;;;512.60;2278.40;;;;;;5129279;28;20099;-80
2021/07/21 02:18:10;;;;;;;23.85;14.73;;;512.60;2278.40;;;;;;5116369;27;20031;-80
2021/07/21 02:20:37;;;;;;;19.52;13.45;;;512.70;2278.40;;;;;;5132855;27;20525;-78
2021/07/21 02:23:03;;;;;;;27.60;14.38;;;512.70;2252.80;;;;;;5134691;27;20023;-76
2021/07/21 02:25:30;;;;;;;24.23;14.48;;;512.50;2252.80;;;;;;5123000;27;20509;-77
2021/07/21 02:27:57;;;;;;;22.52;13.32;;;512.60;2252.80;;;;;;5133878;27;20087;-80
2021/07/21 02:30:24;;;;;;;24.08;15.20;;;512.00;2278.40;;;;;;5136381;27;20095;-81
2021/07/21 02:33:08;;;;;;;25.08;15.07;;;512.60;2252.80;;;;;;5127305;27;20472;-81
2021/07/21 02:35:35;;;;;;;20.98;14.40;;;512.50;2252.80;;;;;;5126000;27;20180;-79
2021/07/21 02:38:02;;;;;;;20.75;14.40;;;512.50;2252.80;;;;;;5135534;27;20019;-78
2021/07/21 02:40:28;;;;;;;25.50;14.80;;;512.50;2252.80;;;;;;5131489;27;20447;-80
2021/07/21 02:42:53;;;;;;;30.13;14.20;;;512.40;2252.80;;;;;;5126634;27;20023;-80
2021/07/21 02:45:19;;;;;;;22.80;14.00;;;512.30;2278.40;;;;;;5135582;27;20094;-80
2021/07/21 02:47:45;;;;;;;29.05;13.60;;;512.30;2278.40;;;;;;5120424;27;20019;-80
2021/07/21 02:50:12;;;;;;;19.92;13.05;;;512.30;2278.40;;;;;;5133017;27;20036;-80
2021/07/21 02:53:00;;;;;;;21.42;13.02;;;512.20;2278.40;;;;;;5123261;27;20110;-77
2021/07/21 02:55:58;;;;;;;24.48;14.18;;;512.10;2278.40;;;;;;5122391;27;20070;-80
2021/07/21 02:58:30;;;;;;;19.55;13.30;;;512.10;2278.40;;;;;;5121337;27;20426;-80
2021/07/21 03:00:58;;;;;;;27.75;14.15;;;512.10;2278.40;;;;;;5130047;27;20019;-79
2021/07/21 03:03:26;;;;;;;19.00;13.32;;;512.00;2252.80;;;;;;5132682;27;20019;-80
2021/07/21 03:05:56;;;;;;;19.83;14.52;;;487.10;2304.00;;;;;;5135579;27;20015;-80
2021/07/21 03:08:29;;;;;;;17.73;13.13;;;487.10;2304.00;;;;;;5131373;27;20012;-79
2021/07/21 03:10:57;;;;;;;25.73;15.30;;;487.20;2278.40;;;;;;5125441;27;20019;-80
2021/07/21 03:13:49;;;;;;;25.77;15.07;;;487.20;2278.40;;;;;;5123532;27;20024;-79
2021/07/21 03:16:17;;;;;;;20.55;13.00;;;487.10;2278.40;;;;;;5119812;27;20460;-79
2021/07/21 03:18:47;;;;;;;19.52;13.13;;;487.20;2252.80;;;;;;5133971;27;20046;-78
2021/07/21 03:21:14;;;;;;;22.40;14.48;;;487.20;2252.80;;;;;;5123832;27;20078;-79
2021/07/21 03:23:42;;;;;;;20.48;14.25;;;487.10;2252.80;;;;;;5131559;27;20030;-79
2021/07/21 03:26:08;;;;;;;26.65;13.63;;;487.20;2252.80;;;;;;5132633;27;20034;-80
2021/07/21 03:28:37;;;;;;;21.58;12.75;;;487.30;2227.20;;;;;;5122406;27;20067;-79
2021/07/21 03:31:04;;;;;;;20.25;14.40;;;512.00;2227.20;;;;;;5127783;27;20023;-80
2021/07/21 03:33:30;;;;;;;20.90;14.25;;;512.00;2227.20;;;;;;5120950;27;20020;-80
2021/07/21 03:36:14;;;;;;;20.55;13.93;;;512.10;2227.20;;;;;;5131226;27;20491;-77
2021/07/21 03:38:42;;;;;;;21.20;14.10;;;512.10;2227.20;;;;;;5123095;27;20028;-77
2021/07/21 03:41:08;;;;;;;30.13;14.27;;;512.10;2252.80;;;;;;5124559;27;20104;-79
2021/07/21 03:43:35;;;;;;;21.45;13.35;;;512.10;2252.80;;;;;;5127913;27;20016;-77
2021/07/21 03:46:02;;;;;;;20.90;12.90;;;512.00;2278.40;;;;;;5134031;27;20023;-80
2021/07/21 03:48:28;;;;;;;23.73;13.45;;;487.30;2278.40;;;;;;5130147;27;20016;-79
2021/07/21 03:50:59;;;;;;;21.13;14.93;;;487.30;2278.40;;;;;;5124300;27;20047;-80
2021/07/21 03:53:26;;;;;;;21.90;14.07;;;487.20;2304.00;;;;;;5122105;27;20024;-82
2021/07/21 03:55:52;;;;;;;22.80;13.38;;;487.20;2304.00;;;;;;5132519;27;20027;-80
2021/07/21 03:58:18;;;;;;;23.63;12.95;;;487.10;2329.60;;;;;;5135704;27;20106;-79
2021/07/21 04:00:44;;;;;;;26.33;12.63;;;487.20;2329.60;;;;;;5130569;27;20103;-81
2021/07/21 04:03:11;;;;;;;19.55;14.27;;;487.20;2329.60;;;;;;5116598;27;20388;-81
2021/07/21 04:05:37;;;;;;;21.40;13.85;;;487.20;2329.60;;;;;;5125975;27;20051;-79
2021/07/21 04:08:04;;;;;;;22.73;13.27;;;487.10;2329.60;;;;;;5131180;27;20046;-77
2021/07/21 04:10:30;;;;;;;21.10;13.57;;;487.10;2329.60;;;;;;5128666;27;20034;-78
2021/07/21 04:12:59;;;;;;;21.50;12.95;;;487.10;2329.60;;;;;;5123158;27;20029;-80
2021/07/21 04:15:27;;;;;;;24.85;13.00;;;487.00;2355.20;;;;;;5129047;27;20091;-79
2021/07/21 04:17:55;;;;;;;26.42;13.25;;;487.10;2355.20;;;;;;5119120;27;20080;-79
2021/07/21 04:20:21;;;;;;;20.23;13.00;;;487.10;2355.20;;;;;;5117390;27;20027;-77
2021/07/21 04:22:49;;;;;;;21.17;13.18;;;487.10;2355.20;;;;;;5119833;27;20377;-78
2021/07/21 04:25:16;;;;;;;21.95;13.05;;;487.20;2329.60;;;;;;5128840;27;20434;-78
2021/07/21 04:27:43;;;;;;;23.80;13.23;;;487.30;2329.60;;;;;;5130504;27;20015;-78
2021/07/21 04:30:09;;;;;;;19.48;12.70;;;512.00;2329.60;;;;;;5133261;27;20027;-79
2021/07/21 04:32:36;;;;;;;18.48;12.80;;;487.30;2329.60;;;;;;5127928;27;20035;-79
2021/07/21 04:35:05;;;;;;;20.23;13.32;;;487.30;2304.00;;;;;;5122933;27;20022;-77
2021/07/21 04:37:32;;;;;;;18.42;12.95;;;487.30;2304.00;;;;;;5128999;27;20083;-80
2021/07/21 04:39:58;;;;;;;17.38;10.90;;;487.30;2304.00;;;;;;5131331;27;20110;-78
2021/07/21 04:42:28;;;;;;;18.42;12.65;;;512.00;2304.00;;;;;;5129208;27;20028;-79
2021/07/21 04:44:55;;;;;;;19.88;12.30;;;512.00;2304.00;;;;;;5117986;27;20065;-78
2021/07/21 04:47:22;;;;;;;21.73;14.07;;;487.30;2304.00;;;;;;5125618;27;20015;-78
2021/07/21 04:49:49;;;;;;;27.05;14.38;;;487.30;2329.60;;;;;;5129294;27;20507;-77
2021/07/21 04:52:16;;;;;;;20.80;12.18;;;512.00;2304.00;;;;;;5132457;27;20034;-80
2021/07/21 04:54:42;;;;;;;23.55;13.68;;;512.00;2304.00;;;;;;5134243;27;20019;-80
2021/07/21 04:57:10;;;;;;;21.40;13.18;;;512.10;2304.00;;;;;;5134880;27;20034;-83
2021/07/21 04:59:36;;;;;;;21.13;13.25;;;487.30;2304.00;;;;;;5134819;27;20041;-83
2021/07/21 05:02:03;;;;;;;22.25;12.48;;;512.00;2304.00;;;;;;5134903;27;20177;-84
2021/07/21 05:04:29;;;;;;;21.33;11.98;;;512.00;2304.00;;;;;;5133699;27;20019;-82
2021/07/21 05:06:55;;;;;;;20.80;12.77;;;512.10;2329.60;;;;;;5134590;27;20102;-79
2021/07/21 05:09:20;;;;;;;21.15;12.82;;;512.20;2304.00;;;;;;5133165;27;20491;-79
2021/07/21 05:11:46;;;;;;;21.77;13.70;;;512.20;2304.00;;;;;;5133079;27;20031;-80
2021/07/21 05:14:13;;;;;;;19.10;13.27;;;512.20;2278.40;;;;;;5129458;27;20496;-78
2021/07/21 05:16:38;;;;;;;23.83;13.23;;;512.20;2278.40;;;;;;5130517;27;20019;-78
2021/07/21 05:19:04;;;;;;;19.88;12.90;;;512.30;2252.80;;;;;;5132677;27;20470;-83
2021/07/21 05:21:33;;;;;;;20.55;11.63;;;512.40;2278.40;;;;;;5132575;27;20043;-80
2021/07/21 05:23:59;;;;;;;22.15;12.45;;;512.50;2252.80;;;;;;5131451;27;20015;-76
2021/07/21 05:26:24;;;;;;;19.17;12.65;;;512.50;2278.40;;;;;;5131915;27;20057;-78
2021/07/21 05:28:50;;;;;;;18.58;12.18;;;512.60;2252.80;;;;;;5122223;27;20136;-78
2021/07/21 05:31:16;;;;;;;19.85;12.80;;;512.50;2227.20;;;;;;5134023;27;20046;-85
2021/07/21 05:33:42;;;;;;;19.48;12.38;;;512.60;2227.20;;;;;;5133975;27;20460;-83
2021/07/21 05:36:07;;;;;;;19.10;11.57;;;512.50;2201.60;;;;;;5133800;27;20239;-79
2021/07/21 05:38:33;;;;;;;19.70;12.75;;;512.60;2227.20;;;;;;5132589;27;20583;-79
2021/07/21 05:40:59;;;;;;;30.80;13.00;;;512.60;2227.20;;;;;;5125396;27;20041;-83
2021/07/21 05:43:29;;;;;;;17.45;12.48;;;512.60;2227.20;;;;;;5127747;27;20099;-84
2021/07/21 05:45:55;;;;;;;16.73;11.52;;;512.80;2201.60;;;;;;5132292;28;20047;-79
2021/07/21 05:48:20;;;;;;;18.58;12.20;;;512.70;2201.60;;;;;;5133831;27;20066;-79
2021/07/21 05:50:46;;;;;;;19.95;13.00;;;512.60;2201.60;;;;;;5132300;28;20054;-77
2021/07/21 05:53:12;;;;;;;19.65;13.00;;;512.80;2201.60;;;;;;5124902;28;20015;-77
2021/07/21 05:55:37;;;;;;;17.88;11.90;;;512.90;2201.60;;;;;;5133834;28;20080;-76
2021/07/21 05:58:03;;;;;;;23.75;12.70;;;512.90;2201.60;;;;;;5136738;27;20098;-80
2021/07/21 06:00:29;;;;;;;23.33;12.43;;;512.90;2176.00;;;;;;5136422;27;20069;-78
2021/07/21 06:02:55;;;;;;;21.40;12.98;;;512.90;2201.60;;;;;;5137526;27;20099;-78
2021/07/21 06:05:21;;;;;;;26.17;12.60;;;512.90;2201.60;;;;;;5135697;27;20480;-80
2021/07/21 06:07:46;;;;;;;19.73;12.25;;;512.90;2201.60;;;;;;5134535;27;20122;-78
2021/07/21 06:10:12;;;;;;;23.70;12.52;;;512.90;2201.60;;;;;;5122723;27;20019;-82
2021/07/21 06:12:38;;;;;;;19.42;13.00;;;512.90;2201.60;;;;;;5135837;27;20066;-79
2021/07/21 06:15:05;;;;;;;19.92;12.85;;;537.60;2201.60;;;;;;5137211;27;20039;-82
2021/07/21 06:17:32;;;;;;;24.60;12.68;;;537.60;2227.20;;;;;;5136224;27;20034;-77
2021/07/21 06:19:58;;;;;;;18.55;11.65;;;537.70;2227.20;;;;;;5137227;27;20023;-81
2021/07/21 06:22:24;;;;;;;20.13;12.70;;;537.80;2201.60;;;;;;5136223;27;20500;-78
2021/07/21 06:24:50;;;;;;;16.27;11.30;;;537.80;2227.20;;;;;;5137027;27;20495;-81
2021/07/21 06:27:15;;;;;;;20.13;12.13;;;537.80;2201.60;;;;;;5137306;27;20027;-82
2021/07/21 06:29:41;;;;;;;17.25;12.13;;;538.00;2201.60;;;;;;5122226;27;20625;-80
2021/07/21 06:32:08;;;;;;;19.83;12.63;;;538.20;2176.00;;;;;;5135380;27;20027;-82
2021/07/21 06:34:34;;;;;;;19.77;11.75;;;538.10;2176.00;;;;;;5136073;27;20070;-83
2021/07/21 06:37:00;;;;;;;17.10;12.00;;;538.30;2150.40;;;;;;5136902;27;20021;-78
2021/07/21 06:39:25;;;;;;;22.33;12.13;;;538.40;2176.00;;;;;;5137177;27;20015;-83
2021/07/21 06:41:52;;;;;;;22.38;12.85;;;538.50;2124.80;;;;;;5136924;27;20430;-82
2021/07/21 06:44:18;;;;;;;20.27;12.45;;;563.20;2176.00;;;;;;5136766;27;20042;-81
2021/07/21 06:46:43;;;;;;;17.60;12.55;;;538.50;2150.40;;;;;;5137022;27;20082;-79
2021/07/21 06:49:09;;;;;;;18.33;10.88;;;538.50;2150.40;;;;;;5136947;27;20376;-77
2021/07/21 06:51:35;;;;;;;21.20;11.88;;;563.40;2150.40;;;;;;5128830;27;20055;-78
2021/07/21 06:54:01;;;;;;;20.10;12.45;;;563.40;2150.40;;;;;;5135052;27;20046;-79
2021/07/21 06:56:26;;;;;;;17.17;12.30;;;563.50;2176.00;;;;;;5136863;27;20023;-81
2021/07/21 06:58:53;;;;;;;24.05;12.20;;;563.60;2150.40;;;;;;5136714;27;20027;-81
2021/07/21 07:01:20;;;;;;;17.92;13.10;;;563.60;2150.40;;;;;;5130343;27;20027;-79
2021/07/21 07:03:47;;;;;;;21.55;13.32;;;563.50;2124.80;;;;;;5136750;27;20500;-82
2021/07/21 07:06:13;;;;;;;19.35;13.13;;;563.60;2124.80;;;;;;5132236;27;20064;-80
2021/07/21 07:08:39;;;;;;;18.13;11.52;;;563.80;2150.40;;;;;;5134258;27;20019;-79
2021/07/21 07:11:06;;;;;;;19.95;13.00;;;563.90;2124.80;;;;;;5136175;27;20031;-77
2021/07/21 07:13:32;;;;;;;20.63;13.32;;;563.90;2150.40;;;;;;5135091;27;20620;-80
2021/07/21 07:16:00;;;;;;;19.65;13.25;;;564.10;2099.20;;;;;;5134152;27;20030;-78
2021/07/21 07:18:26;;;;;;;21.70;13.35;;;588.80;2099.20;;;;;;5136216;27;20372;-78
2021/07/21 07:20:53;;;;;;;19.83;12.57;;;588.90;2099.20;;;;;;5136136;27;20472;-79
2021/07/21 07:23:19;;;;;;;26.13;12.55;;;589.00;2048.00;;;;;;5134904;27;20477;-79
2021/07/21 07:25:44;;;;;;;22.23;13.43;;;589.10;2099.20;;;;;;5136544;27;20012;-77
2021/07/21 07:28:10;;;;;;;20.40;12.77;;;589.20;2048.00;;;;;;5135376;27;20398;-81
2021/07/21 07:30:36;;;;;;;16.70;11.75;;;589.10;2073.60;;;;;;5131480;27;20090;-79
2021/07/21 07:33:02;;;;;;;21.35;12.70;;;589.10;2073.60;;;;;;5133920;27;20011;-81
2021/07/21 07:35:27;;;;;;;21.63;12.75;;;589.30;2022.40;;;;;;5131940;27;20015;-79
2021/07/21 07:37:53;;;;;;;20.55;12.63;;;589.50;2022.40;;;;;;5125796;27;20494;-79
2021/07/21 07:40:20;;;;;;;20.85;12.43;;;589.60;2048.00;;;;;;5123851;27;20110;-81
2021/07/21 07:42:46;;;;;;;22.60;11.80;;;589.70;1996.80;;;;;;5126090;27;20120;-80
2021/07/21 07:45:12;;;;;;;19.23;13.43;;;589.70;1971.20;;;;;;5125599;27;20043;-83
2021/07/21 07:47:38;;;;;;;24.55;13.82;;;589.60;2022.40;;;;;;5124277;27;20099;-81
2021/07/21 07:50:07;;;;;;;23.42;12.27;;;589.70;2022.40;;;;;;5123237;27;20488;-82
2021/07/21 07:52:34;;;;;;;19.00;12.07;;;614.40;1996.80;;;;;;5123012;27;20408;-80
2021/07/21 07:55:00;;;;;;;25.40;13.40;;;589.70;2022.40;;;;;;5126668;27;20023;-80
2021/07/21 07:57:26;;;;;;;25.10;12.70;;;614.50;1996.80;;;;;;5126630;27;20019;-80
2021/07/21 07:59:52;;;;;;;17.50;11.25;;;614.50;1971.20;;;;;;5125511;27;20030;-81
2021/07/21 08:02:18;;;;;;;18.63;11.50;;;614.50;1996.80;;;;;;5124047;27;20031;-81
2021/07/21 08:04:43;;;;;;;25.02;13.65;;;614.60;1945.60;;;;;;5124912;27;20035;-79
2021/07/21 08:07:10;;;;;;;19.25;11.63;;;614.80;1996.80;;;;;;5122492;27;20114;-81
2021/07/21 08:09:36;;;;;;;19.30;12.02;;;614.80;1945.60;;;;;;5124192;27;20023;-81
2021/07/21 08:12:03;;;;;;;27.17;12.60;;;614.80;1945.60;;;;;;5121774;27;20107;-80
2021/07/21 08:14:28;;;;;;;20.48;11.68;;;614.90;1945.60;;;;;;5128886;27;20023;-82
2021/07/21 08:16:55;;;;;;;18.27;13.30;;;614.80;1971.20;;;;;;5119952;27;20491;-83
2021/07/21 08:19:22;;;;;;;17.67;12.30;;;614.80;1945.60;;;;;;5125507;27;20492;-81
2021/07/21 08:21:48;;;;;;;18.48;12.57;;;614.90;1920.00;;;;;;5129982;27;20488;-81
2021/07/21 08:24:16;;;;;;;19.08;11.77;;;615.10;1971.20;;;;;;5130071;27;20046;-79
2021/07/21 08:26:42;;;;;;;21.13;12.85;;;615.10;1945.60;;;;;;5122218;27;20024;-80
2021/07/21 08:29:08;;;;;;;17.70;11.55;;;615.10;1920.00;;;;;;5130514;27;20042;-80
2021/07/21 08:31:35;;;;;;;42.50;13.65;;;615.10;1971.20;;;;;;5133261;27;20389;-82
2021/07/21 08:34:02;;;;;;;19.70;12.88;;;615.10;1945.60;;;;;;5129628;27;20108;-80
2021/07/21 08:36:31;;;;;;;19.38;12.35;;;615.20;1920.00;;;;;;5127444;27;20019;-82
2021/07/21 08:38:58;;;;;;;17.75;12.73;;;615.30;1945.60;;;;;;5128868;27;20027;-82
2021/07/21 08:41:26;;;;;;;21.17;12.00;;;640.00;1971.20;;;;;;5133224;27;20031;-83
2021/07/21 08:43:53;;;;;;;15.32;11.52;;;640.00;1971.20;;;;;;5133366;27;20110;-83
2021/07/21 08:46:19;;;;;;;20.95;12.82;;;640.10;1920.00;;;;;;5128803;27;20657;-83
2021/07/21 08:48:45;;;;;;;22.42;12.48;;;640.00;1971.20;;;;;;5129268;27;20023;-81
2021/07/21 08:51:11;;;;;;;18.75;13.32;;;640.00;1945.60;;;;;;5124488;27;20527;-82
2021/07/21 08:53:37;;;;;;;18.27;12.30;;;640.20;1996.80;;;;;;5128372;27;20034;-82
2021/07/21 08:56:04;;;;;;;18.38;12.40;;;640.20;2022.40;;;;;;5129526;27;20026;-83
2021/07/21 08:58:31;;;;;;;17.08;11.70;;;640.20;1920.00;;;;;;5121735;27;20023;-83
2021/07/21 09:00:57;;;;;;;20.27;12.57;;;640.20;1920.00;;;;;;5133089;27;20027;-79
2021/07/21 09:03:23;;;;;;;20.85;12.70;;;640.10;1945.60;;;;;;5133480;27;20041;-79
2021/07/21 09:05:53;;;;;;;18.20;13.32;;;640.20;1920.00;;;;;;5122016;27;20047;-81
2021/07/21 09:08:19;;;;;;;18.38;12.38;;;640.30;1920.00;;;;;;5133703;27;20023;-82
2021/07/21 09:10:46;;;;;;;21.50;12.25;;;640.10;1971.20;;;;;;5134382;27;20090;-79
2021/07/21 09:13:14;;;;;;;25.13;11.98;;;640.10;1945.60;;;;;;5134332;27;20029;-85
2021/07/21 09:15:42;;;;;;;21.25;13.65;;;640.30;1945.60;;;;;;5126868;27;20028;-79
2021/07/21 09:18:15;;;;;;;17.63;11.98;;;640.40;1920.00;;;;;;5132841;27;20502;-82
2021/07/21 09:20:56;;;;;;;19.70;11.82;;;640.50;1894.40;;;;;;5133997;27;20039;-82
2021/07/21 09:23:35;;;;;;;18.50;12.18;;;640.70;1945.60;;;;;;5130706;27;20020;-80
2021/07/21 09:26:01;;;;;;;17.55;12.10;;;640.90;1894.40;;;;;;5129370;27;20482;-81
2021/07/21 09:28:38;;;;;;;20.77;13.48;;;640.60;1894.40;;;;;;5129547;27;20061;-82
2021/07/21 09:31:05;;;;;;;19.77;12.93;;;665.60;1920.00;;;;;;5133824;27;20030;-80
2021/07/21 09:33:32;;;;;;;18.55;12.65;;;640.90;1894.40;;;;;;5133992;27;20030;-80
2021/07/21 09:35:58;;;;;;;17.27;11.43;;;665.70;1868.80;;;;;;5132813;27;20149;-83
2021/07/21 09:38:29;;;;;;;18.65;12.02;;;666.00;1868.80;;;;;;5128480;27;20449;-82
2021/07/21 09:41:04;;;;;;;18.60;11.80;;;666.10;1817.60;;;;;;5130869;27;20038;-79
2021/07/21 09:43:31;;;;;;;18.23;11.63;;;666.30;1817.60;;;;;;5131852;27;20023;-81
2021/07/21 09:46:06;;;;;;;17.23;11.88;;;666.00;1868.80;;;;;;5131053;27;20039;-78
2021/07/21 09:48:35;;;;;;;20.80;10.65;;;666.10;1843.20;;;;;;5127333;27;20023;-78
2021/07/21 09:51:01;;;;;;;20.10;12.45;;;666.00;1868.80;;;;;;5132684;28;20588;-81
2021/07/21 09:53:49;;;;;;;19.02;11.10;;;666.00;1843.20;;;;;;5129030;27;20050;-83
2021/07/21 09:56:27;;;;;;;15.00;10.98;;;666.20;1843.20;;;;;;5131662;28;20019;-79
2021/07/21 09:58:52;;;;;;;15.50;11.35;;;691.20;1868.80;;;;;;5134306;27;20019;-83
2021/07/21 10:01:29;;;;;;;20.38;11.25;;;691.50;1792.00;;;;;;5123540;28;20035;-81
2021/07/21 10:04:04;;;;;;;14.95;11.30;;;691.70;1817.60;;;;;;5132958;28;20031;-84
2021/07/21 10:06:39;;;;;;;13.13;10.55;;;691.60;1766.40;;;;;;5132885;28;20031;-82
2021/07/21 10:09:05;;;;;;;21.27;12.25;;;691.30;1817.60;;;;;;5131909;28;20031;-79
2021/07/21 10:11:36;;;;;;;17.55;12.40;;;691.40;1843.20;;;;;;5132690;28;20523;-82
2021/07/21 10:14:02;;;;;;;18.90;11.48;;;691.70;1792.00;;;;;;5119023;28;20015;-83
2021/07/21 10:16:43;;;;;;;18.70;11.80;;;691.50;1817.60;;;;;;5127030;28;20072;-81
2021/07/21 10:19:16;;;;;;;16.77;12.15;;;691.40;1792.00;;;;;;5123734;28;20015;-82
2021/07/21 10:21:51;;;;;;;15.23;10.57;;;691.50;1792.00;;;;;;5117308;27;20088;-83
2021/07/21 10:24:18;;;;;;;21.98;12.32;;;691.40;1817.60;;;;;;5121894;28;20053;-80
2021/07/21 10:26:45;;;;;;;16.85;11.15;;;691.70;1766.40;;;;;;5127528;27;20031;-79
2021/07/21 10:29:12;;;;;;;16.25;11.55;;;691.70;1792.00;;;;;;5130030;28;20023;-85
2021/07/21 10:31:38;;;;;;;14.73;10.60;;;716.80;1740.80;;;;;;5133338;28;20438;-84
2021/07/21 10:34:05;;;;;;;16.75;11.45;;;691.80;1740.80;;;;;;5133094;27;20027;-81
2021/07/21 10:36:32;;;;;;;15.55;11.20;;;691.80;1740.80;;;;;;5118371;28;20023;-84
2021/07/21 10:39:00;;;;;;;27.10;12.73;;;691.90;1689.60;;;;;;5125822;28;20023;-82
2021/07/21 10:41:29;;;;;;;14.88;10.73;;;691.70;1766.40;;;;;;5125970;28;20501;-83
2021/07/21 10:43:57;;;;;;;18.42;11.80;;;691.60;1792.00;;;;;;5126212;27;20024;-81
2021/07/21 10:46:46;;;;;;;14.77;11.00;;;691.30;1740.80;;;;;;5136936;27;20491;-81
2021/07/21 11:00:13;;;;;;;19.35;12.02;;;692.10;1638.40;;;;;;5133574;27;20046;-87
2021/07/21 11:02:40;;;;;;;15.60;11.00;;;717.10;1638.40;;;;;;5132320;27;20122;-82
2021/07/21 11:05:09;;;;;;;16.42;11.30;;;717.20;1638.40;;;;;;5127765;27;20110;-83
2021/07/21 11:08:01;;;;;;;13.80;10.40;;;716.90;1689.60;;;;;;5121651;27;20019;-83
2021/07/21 11:10:45;;;;;;;16.92;10.10;;;716.80;1664.00;;;;;;5117507;27;20019;-80
2021/07/21 11:13:30;;;;;;;18.90;11.15;;;691.70;1664.00;;;;;;5126118;27;20034;-83
2021/07/21 11:15:57;;;;;;;20.63;10.95;;;692.10;1689.60;;;;;;5130811;27;20131;-81
2021/07/21 11:18:23;;;;;;;19.17;12.43;;;716.90;1664.00;;;;;;5119966;27;20019;-81
2021/07/21 11:21:01;;;;;;;16.30;11.48;;;717.20;1664.00;;;;;;5134392;27;20039;-81
2021/07/21 11:23:53;;;;;;;16.73;10.80;;;717.30;1664.00;;;;;;5132559;27;20118;-84
2021/07/21 11:26:29;;;;;;;18.35;12.25;;;716.80;1664.00;;;;;;5124474;27;20392;-78
2021/07/21 11:28:56;;;;;;;18.52;11.10;;;691.80;1638.40;;;;;;5114327;28;20059;-80
2021/07/21 11:31:47;;;;;;;14.98;11.32;;;716.80;1612.80;;;;;;5128954;27;20091;-78
2021/07/21 11:34:13;;;;;;;23.05;12.98;;;716.80;1612.80;;;;;;5122532;27;20122;-78
2021/07/21 11:36:39;;;;;;;21.40;12.55;;;692.10;1612.80;;;;;;5126347;27;20114;-77
2021/07/21 11:39:09;;;;;;;22.10;12.65;;;716.80;1689.60;;;;;;5124533;27;20047;-81
2021/07/21 11:41:47;;;;;;;16.60;11.27;;;717.10;1612.80;;;;;;5125935;27;20885;-82
2021/07/21 11:44:22;;;;;;;18.88;10.48;;;717.40;1561.60;;;;;;5126863;27;20011;-80
2021/07/21 11:46:49;;;;;;;15.50;11.07;;;717.20;1587.20;;;;;;5124906;27;20499;-78
2021/07/21 11:49:19;;;;;;;23.23;12.80;;;716.80;1638.40;;;;;;5123931;27;20274;-78
2021/07/21 11:51:51;;;;;;;19.30;11.27;;;717.00;1715.20;;;;;;5124194;27;20050;-79
2021/07/21 11:54:27;;;;;;;14.38;11.45;;;717.10;1689.60;;;;;;5122504;27;20024;-80
2021/07/21 11:56:54;;;;;;;;;;;717.10;1612.80;;;;;;5120560;27;20020;-80
2021/07/21 11:59:33;;;;;;;16.90;10.35;;;717.40;1612.80;;;;;;5126256;27;20005;-79
2021/07/21 12:02:17;;;;;;;14.77;10.02;;;717.40;1638.40;;;;;;5123140;27;20043;-79
2021/07/21 12:04:48;;;;;;;14.15;10.32;;;717.60;1612.80;;;;;;5121834;27;20092;-80
2021/07/21 12:07:20;;;;;;;14.20;9.73;;;717.50;1587.20;;;;;;5128303;27;20740;-81
2021/07/21 12:09:51;;;;;;;14.55;10.45;;;717.60;1587.20;;;;;;5124514;27;20027;-80
2021/07/21 12:12:21;;;;;;;14.65;10.88;;;742.40;1561.60;;;;;;5119302;27;20076;-86
2021/07/21 12:14:52;;;;;;;13.20;10.95;;;742.60;1612.80;;;;;;5125237;27;20035;-80
2021/07/21 12:17:19;;;;;;;21.13;10.48;;;742.80;1612.80;;;;;;5122610;27;20794;-80
2021/07/21 12:20:08;;;;;;;15.10;10.38;;;742.70;1561.60;;;;;;5124043;27;20023;-82